Jhang Weather



Jhang's Current Weather

Temprature 24.71o few clouds

few clouds

Rain: 0 %

Min Temprature24.44o
Max Temprature25o
Humidity50
Wind Speed6.2 m/h
Sun Rise06:15:40
Sun Set17:32:56
Current Time: 18-Oct-2019 16:16:49
Lat/Lon: 33.67, 72.7




Jhang's Geo Location



Jhang's Weather Forecast

Time Overall Temp Min Temp Max Temp Humidity Wind Speed Rain
18-Oct-2019 (Fri)
17:00:00 overcast clouds 23.230 23.230 24.450 49 2.11 m/h 0 %
20:00:00 scattered clouds 20.590 20.590 21.500 57 0.92 m/h 0 %
23:00:00 few clouds 19.820 19.820 20.428 60 0.7 m/h 0 %
19-Oct-2019 (Sat)
02:00:00 broken clouds 19.460 19.460 19.768 58 1.3 m/h 0 %
05:00:00 broken clouds 19.743 19.743 19.743 49 1.69 m/h 0 %
08:00:00 overcast clouds 21.161 21.161 21.161 46 0.9 m/h 0 %
11:00:00 overcast clouds 25.210 25.210 25.210 32 1.8 m/h 0 %
14:00:00 light rain 27.876 27.876 27.876 28 2.37 m/h 6 %
17:00:00 broken clouds 25.542 25.542 25.542 38 0.9 m/h 0 %
20:00:00 clear sky 21.438 21.438 21.438 45 2.56 m/h 0 %
23:00:00 clear sky 20.247 20.247 20.247 46 1.52 m/h 0 %
20-Oct-2019 (Sun)
02:00:00 clear sky 19.187 19.187 19.187 48 1.36 m/h 0 %
05:00:00 clear sky 18.264 18.264 18.264 47 0.82 m/h 0 %
08:00:00 clear sky 20.452 20.452 20.452 44 0.25 m/h 0 %
11:00:00 clear sky 25.560 25.560 25.560 33 1.72 m/h 0 %
14:00:00 scattered clouds 28.842 28.842 28.842 26 2.32 m/h 0 %
17:00:00 broken clouds 25.758 25.758 25.758 37 1.17 m/h 0 %
20:00:00 overcast clouds 22.912 22.912 22.912 39 1.26 m/h 0 %
23:00:00 broken clouds 21.017 21.017 21.017 43 2.31 m/h 0 %
21-Oct-2019 (Mon)
02:00:00 few clouds 19.750 19.750 19.750 45 1.69 m/h 0 %
05:00:00 clear sky 18.671 18.671 18.671 44 1.39 m/h 0 %
08:00:00 clear sky 20.819 20.819 20.819 41 0.61 m/h 0 %
11:00:00 clear sky 25.667 25.667 25.667 32 1.89 m/h 0 %
14:00:00 clear sky 29.035 29.035 29.035 24 1.56 m/h 0 %
17:00:00 clear sky 26.354 26.354 26.354 35 1.19 m/h 0 %
20:00:00 clear sky 23.164 23.164 23.164 37 1.79 m/h 0 %
23:00:00 clear sky 21.160 21.160 21.160 40 2.23 m/h 0 %
22-Oct-2019 (Tue)
02:00:00 clear sky 19.756 19.756 19.756 43 1.63 m/h 0 %
05:00:00 clear sky 18.519 18.519 18.519 45 0.79 m/h 0 %
08:00:00 clear sky 20.662 20.662 20.662 42 0.43 m/h 0 %
11:00:00 clear sky 25.839 25.839 25.839 31 1.75 m/h 0 %
14:00:00 scattered clouds 29.049 29.049 29.049 25 1.98 m/h 0 %
17:00:00 broken clouds 26.022 26.022 26.022 34 1.18 m/h 0 %
20:00:00 overcast clouds 23.850 23.850 23.850 35 2.37 m/h 0 %
23:00:00 overcast clouds 22.699 22.699 22.699 37 1.67 m/h 0 %
23-Oct-2019 (Wed)
02:00:00 overcast clouds 20.946 20.946 20.946 41 1.03 m/h 0 %
05:00:00 overcast clouds 20.057 20.057 20.057 44 1.2 m/h 0 %
08:00:00 light rain 20.129 20.129 20.129 55 0.83 m/h 100 %
11:00:00 light rain 25.595 25.595 25.595 37 3.41 m/h 44 %
14:00:00 overcast clouds 28.859 28.859 28.859 27 3.34 m/h 0 %

Famous Cities (61)